createdAt,value
2023-12-23T00:00:18.028Z,97405.89
2023-12-23T00:03:06.737Z,97404.23
2023-12-23T00:05:35.092Z,97408.11
2023-12-23T00:08:03.382Z,97409.97
2023-12-23T00:10:31.833Z,97406.11
2023-12-23T00:12:59.895Z,97412.32
2023-12-23T00:15:27.840Z,97414.77
2023-12-23T00:17:56.785Z,97416.50
2023-12-23T00:20:25.161Z,97420.88
2023-12-23T00:22:53.654Z,97417.80
2023-12-23T00:25:22.000Z,97428.70
2023-12-23T00:27:50.110Z,97429.55
2023-12-23T00:30:18.427Z,97431.65
2023-12-23T00:32:52.483Z,97441.12
2023-12-23T00:35:21.475Z,97446.73
2023-12-23T00:37:49.941Z,97450.22
2023-12-23T00:40:18.101Z,97455.00
2023-12-23T00:42:46.159Z,97457.69
2023-12-23T00:45:14.143Z,97463.07
2023-12-23T00:47:42.332Z,97461.62
2023-12-23T00:50:10.814Z,97468.43
2023-12-23T00:52:42.334Z,97477.30
2023-12-23T00:55:13.601Z,97482.42
2023-12-23T00:57:41.903Z,97492.08
2023-12-23T01:00:10.247Z,97495.64
2023-12-23T01:02:41.132Z,97500.42
2023-12-23T01:05:10.412Z,97499.48
2023-12-23T01:07:43.270Z,97504.96
2023-12-23T01:10:11.401Z,97499.95
2023-12-23T01:12:39.447Z,97502.45
2023-12-23T01:15:08.007Z,97501.55
2023-12-23T01:17:36.168Z,97498.48
2023-12-23T01:20:06.439Z,97499.09
2023-12-23T01:22:35.526Z,97494.58
2023-12-23T01:25:04.037Z,97500.45
2023-12-23T01:27:34.904Z,97501.96
2023-12-23T01:30:04.137Z,97508.86
2023-12-23T01:32:32.367Z,97511.77
2023-12-23T01:35:00.807Z,97518.34
2023-12-23T01:37:29.261Z,97523.98
2023-12-23T01:39:59.570Z,97527.24
2023-12-23T01:42:28.231Z,97521.27
2023-12-23T01:44:56.940Z,97518.02
2023-12-23T01:47:27.542Z,97514.72
2023-12-23T01:49:57.558Z,97512.17
2023-12-23T01:52:25.605Z,97515.45
2023-12-23T01:54:57.181Z,97512.39
2023-12-23T01:57:25.833Z,97513.31
2023-12-23T01:59:54.078Z,97517.92
2023-12-23T02:02:23.395Z,97528.64
2023-12-23T02:04:51.865Z,97537.37
2023-12-23T02:07:22.698Z,97544.55
2023-12-23T02:09:50.869Z,97543.27
2023-12-23T02:12:32.623Z,97554.45
2023-12-23T02:15:10.933Z,97557.81
2023-12-23T02:17:39.834Z,97554.95
2023-12-23T02:20:08.732Z,97556.36
2023-12-23T02:22:36.902Z,97558.63
2023-12-23T02:25:05.297Z,97559.44
2023-12-23T02:27:51.433Z,97559.66
2023-12-23T02:30:20.615Z,97560.38
2023-12-23T02:32:49.655Z,97561.60
2023-12-23T02:35:18.306Z,97559.65
2023-12-23T02:37:46.682Z,97567.12
2023-12-23T02:40:14.826Z,97566.95
2023-12-23T02:42:43.021Z,97570.37
2023-12-23T02:45:11.389Z,97575.19
2023-12-23T02:47:39.635Z,97571.21
2023-12-23T02:50:08.867Z,97575.34
2023-12-23T02:52:38.852Z,97582.68
2023-12-23T02:55:07.917Z,97588.94
2023-12-23T02:57:39.293Z,97593.73
2023-12-23T03:00:11.186Z,97591.27
2023-12-23T03:02:39.175Z,97594.23
2023-12-23T03:05:08.385Z,97596.76
2023-12-23T03:07:36.494Z,97607.70
2023-12-23T03:10:05.297Z,97610.20
2023-12-23T03:12:33.402Z,97614.44
2023-12-23T03:15:01.950Z,97619.86
2023-12-23T03:17:30.353Z,97625.63
2023-12-23T03:19:58.381Z,97625.19
2023-12-23T03:22:26.492Z,97631.64
2023-12-23T03:24:54.729Z,97633.34
2023-12-23T03:27:23.082Z,97635.95
2023-12-23T03:29:51.159Z,97638.78
2023-12-23T03:32:19.576Z,97637.77
2023-12-23T03:34:47.850Z,97644.37
2023-12-23T03:37:16.040Z,97648.45
2023-12-23T03:39:46.399Z,97652.69
2023-12-23T03:42:14.524Z,97658.28
2023-12-23T03:44:42.588Z,97667.34
2023-12-23T03:47:10.783Z,97673.13
2023-12-23T03:49:38.945Z,97679.60
2023-12-23T03:52:06.898Z,97680.11
2023-12-23T03:54:37.524Z,97692.23
2023-12-23T03:57:05.753Z,97693.70
2023-12-23T03:59:33.666Z,97695.75
2023-12-23T04:02:02.103Z,97695.91
2023-12-23T04:04:30.190Z,97706.44
2023-12-23T04:06:58.409Z,97712.13
2023-12-23T04:09:26.486Z,97716.64
2023-12-23T04:11:54.809Z,97724.67
2023-12-23T04:14:23.114Z,97728.05
2023-12-23T04:16:51.617Z,97723.57
2023-12-23T04:19:19.831Z,97724.77
2023-12-23T04:21:47.896Z,97726.09
2023-12-23T04:24:16.168Z,97728.09
2023-12-23T04:26:44.648Z,97726.80
2023-12-23T04:29:13.415Z,97732.23
2023-12-23T04:31:42.154Z,97739.48
2023-12-23T04:34:11.808Z,97746.23
2023-12-23T04:36:40.153Z,97749.41
2023-12-23T04:39:08.305Z,97755.77
2023-12-23T04:41:36.339Z,97761.77
2023-12-23T04:44:04.816Z,97766.96
2023-12-23T04:46:33.001Z,97769.61
2023-12-23T04:49:01.214Z,97766.86
2023-12-23T04:51:29.420Z,97775.21
2023-12-23T04:53:57.715Z,97772.61
2023-12-23T04:56:26.175Z,97778.34
2023-12-23T04:58:54.370Z,97784.20
2023-12-23T05:01:26.989Z,97796.02
2023-12-23T05:03:56.023Z,97800.86
2023-12-23T05:06:24.160Z,97801.50
2023-12-23T05:08:52.456Z,97804.96
2023-12-23T05:11:20.774Z,97813.05
2023-12-23T05:13:48.933Z,97812.05
2023-12-23T05:16:16.998Z,97816.64
2023-12-23T05:18:45.347Z,97821.02
2023-12-23T05:21:13.577Z,97825.48
2023-12-23T05:23:41.807Z,97824.96
2023-12-23T05:26:10.430Z,97826.34
2023-12-23T05:28:41.255Z,97834.47
2023-12-23T05:31:12.319Z,97843.84
2023-12-23T05:33:40.526Z,97849.77
2023-12-23T05:36:09.562Z,97853.87
2023-12-23T05:38:40.364Z,97853.32
2023-12-23T05:41:10.229Z,97860.58
2023-12-23T05:43:38.359Z,97862.43
2023-12-23T05:46:06.706Z,97861.64
2023-12-23T05:48:37.312Z,97870.05
2023-12-23T05:51:09.178Z,97875.95
2023-12-23T05:53:37.205Z,97880.13
2023-12-23T05:56:09.180Z,97881.34
2023-12-23T05:58:37.484Z,97887.91
2023-12-23T06:01:07.943Z,97887.33
2023-12-23T06:03:36.177Z,97896.85
2023-12-23T06:06:05.643Z,97902.05
2023-12-23T06:08:33.790Z,97908.77
2023-12-23T06:13:30.381Z,97911.52
2023-12-23T06:15:58.378Z,97909.94
2023-12-23T06:18:26.685Z,97911.24
2023-12-23T06:20:55.009Z,97911.05
2023-12-23T06:23:25.635Z,97911.50
2023-12-23T06:25:54.121Z,97918.02
2023-12-23T06:28:22.234Z,97932.90
2023-12-23T06:30:50.718Z,97937.05
2023-12-23T06:33:19.209Z,97946.39
2023-12-23T06:35:47.413Z,97941.67
2023-12-23T06:38:17.496Z,97942.52
2023-12-23T06:40:46.006Z,97955.35
2023-12-23T06:43:44.108Z,97953.59
2023-12-23T06:46:02.134Z,97959.19
2023-12-23T06:48:34.255Z,97962.02
2023-12-23T06:51:04.682Z,97968.63
2023-12-23T06:53:32.824Z,97969.28
2023-12-23T06:56:01.074Z,97976.05
2023-12-23T06:58:32.504Z,97980.23
2023-12-23T07:01:00.962Z,97978.40
2023-12-23T07:03:29.482Z,97979.77
2023-12-23T07:05:58.521Z,97983.55
2023-12-23T07:08:26.981Z,97984.19
2023-12-23T07:10:55.174Z,97989.38
2023-12-23T07:13:23.336Z,97994.71
2023-12-23T07:15:51.429Z,97996.10
2023-12-23T07:18:19.873Z,98006.77
2023-12-23T07:20:49.054Z,98006.04
2023-12-23T07:23:17.378Z,98008.23
2023-12-23T07:25:45.950Z,98010.95
2023-12-23T07:28:14.097Z,98006.38
2023-12-23T07:30:46.279Z,98011.35
2023-12-23T07:33:15.286Z,98015.65
2023-12-23T07:35:46.549Z,98024.66
2023-12-23T07:38:15.432Z,98019.04
2023-12-23T07:40:43.661Z,98018.61
2023-12-23T07:43:11.978Z,98016.23
2023-12-23T07:45:40.141Z,98013.56
2023-12-23T07:48:08.438Z,98019.97
2023-12-23T07:50:36.607Z,98022.02
2023-12-23T07:53:05.031Z,98032.44
2023-12-23T07:55:35.625Z,98035.85
2023-12-23T07:58:03.836Z,98024.11
2023-12-23T08:00:31.891Z,98032.70
2023-12-23T08:03:02.711Z,98039.37
2023-12-23T08:05:34.676Z,98044.15
2023-12-23T08:08:02.910Z,98045.75
2023-12-23T08:10:30.901Z,98049.16
2023-12-23T08:12:59.013Z,98047.24
2023-12-23T08:15:27.147Z,98050.06
2023-12-23T08:17:55.465Z,98047.10
2023-12-23T08:20:23.994Z,98049.83
2023-12-23T08:22:53.001Z,98049.46
2023-12-23T08:25:21.463Z,98048.88
2023-12-23T08:27:55.464Z,98048.91
2023-12-23T08:30:23.716Z,98056.57
2023-12-23T08:32:52.248Z,98055.13
2023-12-23T08:35:21.184Z,98052.39
2023-12-23T08:37:49.697Z,98039.43
2023-12-23T08:40:17.852Z,98048.35
2023-12-23T08:42:46.308Z,98045.98
2023-12-23T08:45:14.448Z,98046.88
2023-12-23T08:47:44.006Z,98040.92
2023-12-23T08:50:13.047Z,98044.14
2023-12-23T08:52:41.051Z,98048.26
2023-12-23T08:55:09.445Z,98049.08
2023-12-23T08:57:40.292Z,98051.24
2023-12-23T09:00:09.189Z,98060.82
2023-12-23T09:02:37.352Z,98060.41
2023-12-23T09:05:06.228Z,98059.27
2023-12-23T09:07:35.979Z,98060.27
2023-12-23T09:10:08.414Z,98064.55
2023-12-23T09:12:37.401Z,98066.61
2023-12-23T09:15:05.678Z,98074.70
2023-12-23T09:17:34.877Z,98072.02
2023-12-23T09:20:07.243Z,98073.02
2023-12-23T09:22:35.522Z,98066.69
2023-12-23T09:25:03.899Z,98071.92
2023-12-23T09:27:32.749Z,98076.15
2023-12-23T09:30:01.377Z,98071.81
2023-12-23T09:32:29.896Z,98073.00
2023-12-23T09:34:58.274Z,98068.77
2023-12-23T09:37:26.480Z,98064.35
2023-12-23T09:40:00.545Z,98070.36
2023-12-23T09:42:32.460Z,98071.69
2023-12-23T09:45:00.998Z,98079.48
2023-12-23T09:47:29.185Z,98081.89
2023-12-23T09:49:58.106Z,98083.23
2023-12-23T09:52:26.743Z,98077.34
2023-12-23T09:54:58.988Z,98077.77
2023-12-23T09:57:28.158Z,98069.05
2023-12-23T10:00:02.434Z,98068.66
2023-12-23T10:02:42.502Z,98060.81
2023-12-23T10:05:10.890Z,98060.09
2023-12-23T10:07:39.621Z,98058.15
2023-12-23T10:10:08.562Z,98056.49
2023-12-23T10:12:37.290Z,98054.20
2023-12-23T10:15:05.975Z,98042.23
2023-12-23T10:17:37.031Z,98047.23
2023-12-23T10:20:06.026Z,98053.11
2023-12-23T10:22:34.330Z,98051.44
2023-12-23T10:25:02.539Z,98043.61
2023-12-23T10:27:34.183Z,98036.69
2023-12-23T10:30:06.676Z,98037.42
2023-12-23T10:32:38.208Z,98039.83
2023-12-23T10:35:08.108Z,98044.64
2023-12-23T10:37:41.782Z,98049.52
2023-12-23T10:40:26.728Z,98048.08
2023-12-23T10:43:03.205Z,98041.60
2023-12-23T10:45:35.749Z,98035.75
2023-12-23T10:48:08.158Z,98033.70
2023-12-23T10:50:36.981Z,98039.87
2023-12-23T10:53:14.116Z,98038.02
2023-12-23T10:55:42.760Z,98026.33
2023-12-23T10:58:13.571Z,98039.24
2023-12-23T11:00:42.727Z,98041.31
2023-12-23T11:03:12.857Z,98037.19
2023-12-23T11:05:44.930Z,98041.43
2023-12-23T11:08:24.027Z,98043.61
2023-12-23T11:10:53.439Z,98044.06
2023-12-23T11:13:22.168Z,98034.63
2023-12-23T11:15:50.316Z,98026.73
2023-12-23T11:18:18.416Z,98028.77
2023-12-23T11:20:50.670Z,98029.31
2023-12-23T11:23:28.424Z,98028.80
2023-12-23T11:25:57.953Z,98029.13
2023-12-23T11:28:27.804Z,98024.28
2023-12-23T11:30:58.454Z,98026.22
2023-12-23T11:33:29.224Z,98024.88
2023-12-23T11:36:02.989Z,98020.39
2023-12-23T11:38:51.890Z,98019.20
2023-12-23T11:41:21.859Z,98023.70
2023-12-23T11:43:51.642Z,98025.70
2023-12-23T11:46:22.746Z,98028.52
2023-12-23T11:48:51.076Z,98033.72
2023-12-23T11:51:19.893Z,98032.11
2023-12-23T11:53:49.060Z,98031.44
2023-12-23T11:56:17.270Z,98024.30
2023-12-23T11:58:45.770Z,98018.80
2023-12-23T12:01:14.000Z,98025.98
2023-12-23T12:03:42.265Z,98029.88
2023-12-23T12:06:11.191Z,98024.64
2023-12-23T12:08:39.770Z,98021.81
2023-12-23T12:11:13.689Z,98022.46
2023-12-23T12:13:41.910Z,98024.27
2023-12-23T12:16:11.157Z,98016.60
2023-12-23T12:18:41.777Z,98029.56
2023-12-23T12:21:10.151Z,98024.14
2023-12-23T12:23:38.460Z,98020.96
2023-12-23T12:26:08.886Z,98012.14
2023-12-23T12:28:37.982Z,98019.48
2023-12-23T12:31:13.146Z,98026.91
2023-12-23T12:33:43.585Z,98031.33
2023-12-23T12:36:17.214Z,98032.05
2023-12-23T12:38:46.309Z,98033.44
2023-12-23T12:41:14.998Z,98031.91
2023-12-23T12:43:45.006Z,98039.74
2023-12-23T12:46:16.667Z,98049.14
2023-12-23T12:48:47.519Z,98051.84
2023-12-23T12:51:20.119Z,98053.55
2023-12-23T12:53:48.641Z,98058.01
2023-12-23T12:56:23.176Z,98060.80
2023-12-23T12:58:52.772Z,98073.78
2023-12-23T13:01:22.696Z,98079.20
2023-12-23T13:03:51.745Z,98087.03
2023-12-23T13:06:20.598Z,98084.50
2023-12-23T13:08:48.766Z,98091.16
2023-12-23T13:11:17.352Z,98092.95
2023-12-23T13:13:46.375Z,98096.00
2023-12-23T13:16:14.790Z,98102.41
2023-12-23T13:18:52.655Z,98106.48
2023-12-23T13:21:25.457Z,98117.11
2023-12-23T13:23:53.763Z,98117.83
2023-12-23T13:26:22.059Z,98121.55
2023-12-23T13:28:52.390Z,98132.23
2023-12-23T13:31:24.191Z,98139.61
2023-12-23T13:33:52.490Z,98146.09
2023-12-23T13:36:20.747Z,98146.48
2023-12-23T13:38:54.439Z,98152.84
2023-12-23T13:41:29.548Z,98158.81
2023-12-23T13:44:01.259Z,98164.80
2023-12-23T13:46:29.462Z,98168.93
2023-12-23T13:48:58.256Z,98173.48
2023-12-23T13:51:27.281Z,98181.06
2023-12-23T13:53:56.801Z,98183.04
2023-12-23T13:56:28.142Z,98187.66
2023-12-23T13:58:56.405Z,98190.70
2023-12-23T14:01:24.500Z,98192.59
2023-12-23T14:03:52.823Z,98191.89
2023-12-23T14:06:21.129Z,98193.34
2023-12-23T14:08:49.596Z,98191.13
2023-12-23T14:11:17.807Z,98189.02
2023-12-23T14:13:46.604Z,98187.83
2023-12-23T14:16:17.983Z,98187.11
2023-12-23T14:18:47.747Z,98191.91
2023-12-23T14:21:18.343Z,98193.46
2023-12-23T14:23:46.901Z,98196.26
2023-12-23T14:26:15.427Z,98199.73
2023-12-23T14:28:43.515Z,98202.02
2023-12-23T14:31:13.525Z,98206.73
2023-12-23T14:33:43.562Z,98211.45
2023-12-23T14:36:12.198Z,98210.25
2023-12-23T14:38:40.952Z,98216.39
2023-12-23T14:41:09.236Z,98220.36
2023-12-23T14:43:37.585Z,98217.60
2023-12-23T14:46:05.898Z,98222.09
2023-12-23T14:48:34.635Z,98223.95
2023-12-23T14:51:03.043Z,98224.05
2023-12-23T14:53:34.292Z,98223.37
2023-12-23T14:56:02.543Z,98231.69
2023-12-23T14:58:31.161Z,98236.00
2023-12-23T15:00:59.340Z,98239.12
2023-12-23T15:03:27.625Z,98241.26
2023-12-23T15:05:55.945Z,98243.03
2023-12-23T15:08:24.230Z,98247.10
2023-12-23T15:10:52.410Z,98249.06
2023-12-23T15:13:23.046Z,98251.00
2023-12-23T15:15:51.771Z,98253.64
2023-12-23T15:18:20.286Z,98258.25
2023-12-23T15:20:48.403Z,98266.43
2023-12-23T15:23:16.506Z,98262.55
2023-12-23T15:25:44.693Z,98262.48
2023-12-23T15:28:12.867Z,98262.19
2023-12-23T15:30:42.423Z,98268.36
2023-12-23T15:33:10.719Z,98270.20
2023-12-23T15:35:39.037Z,98282.94
2023-12-23T15:38:07.710Z,98276.04
2023-12-23T15:40:35.792Z,98285.26
2023-12-23T15:43:05.522Z,98290.34
2023-12-23T15:45:33.599Z,98293.69
2023-12-23T15:48:02.158Z,98298.40
2023-12-23T15:50:30.482Z,98298.80
2023-12-23T15:52:58.829Z,98302.61
2023-12-23T15:55:26.924Z,98302.23
2023-12-23T15:57:56.306Z,98302.77
2023-12-23T16:00:25.075Z,98311.27
2023-12-23T16:02:55.777Z,98314.62
2023-12-23T16:05:24.080Z,98318.98
2023-12-23T16:07:52.720Z,98320.59
2023-12-23T16:10:23.811Z,98327.90
2023-12-23T16:12:52.167Z,98333.11
2023-12-23T16:15:20.271Z,98337.27
2023-12-23T16:17:48.326Z,98341.21
2023-12-23T16:20:16.824Z,98346.77
2023-12-23T16:22:44.930Z,98349.23
2023-12-23T16:25:13.337Z,98355.88
2023-12-23T16:27:41.312Z,98361.33
2023-12-23T16:30:10.070Z,98373.54
2023-12-23T16:32:38.866Z,98370.11
2023-12-23T16:35:09.076Z,98380.69
2023-12-23T16:37:37.345Z,98380.38
2023-12-23T16:40:06.101Z,98381.27
2023-12-23T16:42:35.575Z,98380.59
2023-12-23T16:45:05.184Z,98387.90
2023-12-23T16:47:33.553Z,98388.95
2023-12-23T16:50:04.469Z,98396.39
2023-12-23T16:52:33.281Z,98396.55
2023-12-23T16:55:03.663Z,98395.14
2023-12-23T16:57:31.766Z,98399.22
2023-12-23T17:00:00.433Z,98398.36
2023-12-23T17:05:56.052Z,98400.23
2023-12-23T17:08:24.380Z,98411.27
2023-12-23T17:10:52.897Z,98411.35
2023-12-23T17:13:21.338Z,98411.94
2023-12-23T17:15:49.399Z,98419.85
2023-12-23T17:18:17.945Z,98425.49
2023-12-23T17:20:46.257Z,98429.73
2023-12-23T17:23:14.734Z,98431.05
2023-12-23T17:25:42.781Z,98431.10
2023-12-23T17:28:12.955Z,98437.63
2023-12-23T17:30:42.594Z,98444.30
2023-12-23T17:33:14.237Z,98444.26
2023-12-23T17:35:43.036Z,98446.75
2023-12-23T17:38:11.400Z,98449.45
2023-12-23T17:40:40.329Z,98452.27
2023-12-23T17:43:09.515Z,98455.61
2023-12-23T17:45:38.601Z,98463.30
2023-12-23T17:48:07.771Z,98464.58
2023-12-23T17:50:36.842Z,98464.68
2023-12-23T17:53:05.430Z,98461.86
2023-12-23T17:55:33.491Z,98468.29
2023-12-23T17:58:01.391Z,98471.36
2023-12-23T18:00:29.589Z,98479.57
2023-12-23T18:02:57.862Z,98478.73
2023-12-23T18:05:26.249Z,98478.17
2023-12-23T18:07:56.648Z,98481.56
2023-12-23T18:10:24.766Z,98484.95
2023-12-23T18:12:52.984Z,98489.38
2023-12-23T18:15:21.492Z,98494.04
2023-12-23T18:17:50.518Z,98498.01
2023-12-23T18:20:18.744Z,98504.65
2023-12-23T18:22:48.908Z,98506.62
2023-12-23T18:25:17.432Z,98510.63
2023-12-23T18:27:45.511Z,98516.36
2023-12-23T18:30:13.982Z,98519.27
2023-12-23T18:32:42.443Z,98520.51
2023-12-23T18:35:10.794Z,98522.98
2023-12-23T18:37:39.238Z,98529.38
2023-12-23T18:40:08.016Z,98532.53
2023-12-23T18:42:36.715Z,98534.63
2023-12-23T18:45:08.393Z,98537.41
2023-12-23T18:47:36.768Z,98539.13
2023-12-23T18:50:05.669Z,98544.66
2023-12-23T18:52:33.882Z,98543.73
2023-12-23T18:55:02.049Z,98548.91
2023-12-23T18:57:30.312Z,98547.30
2023-12-23T18:59:58.436Z,98555.64
2023-12-23T19:02:26.544Z,98558.70
2023-12-23T19:04:57.111Z,98561.82
2023-12-23T19:07:25.758Z,98559.86
2023-12-23T19:09:53.738Z,98568.32
2023-12-23T19:12:22.226Z,98570.02
2023-12-23T19:14:50.783Z,98569.11
2023-12-23T19:17:18.939Z,98570.69
2023-12-23T19:19:47.232Z,98572.20
2023-12-23T19:22:15.271Z,98569.88
2023-12-23T19:24:45.412Z,98573.50
2023-12-23T19:27:13.508Z,98574.52
2023-12-23T19:29:42.506Z,98578.65
2023-12-23T19:32:10.765Z,98581.95
2023-12-23T19:34:38.760Z,98585.75
2023-12-23T19:37:06.887Z,98588.93
2023-12-23T19:39:35.064Z,98591.00
2023-12-23T19:42:04.902Z,98598.48
2023-12-23T19:44:33.662Z,98598.83
2023-12-23T19:47:02.133Z,98603.29
2023-12-23T19:49:30.262Z,98609.16
2023-12-23T19:51:58.310Z,98613.44
2023-12-23T19:54:27.442Z,98616.86
2023-12-23T19:56:55.906Z,98620.71
2023-12-23T19:59:24.228Z,98621.84
2023-12-23T20:01:52.358Z,98626.98
2023-12-23T20:04:21.596Z,98628.27
2023-12-23T20:06:50.681Z,98631.79
2023-12-23T20:09:19.952Z,98637.07
2023-12-23T20:11:48.215Z,98644.68
2023-12-23T20:14:16.631Z,98645.59
2023-12-23T20:16:44.806Z,98647.33
2023-12-23T20:19:14.064Z,98645.39
2023-12-23T20:21:42.288Z,98646.46
2023-12-23T20:24:13.667Z,98650.66
2023-12-23T20:26:42.272Z,98650.94
2023-12-23T20:29:10.787Z,98654.95
2023-12-23T20:31:39.176Z,98660.35
2023-12-23T20:34:08.364Z,98662.81
2023-12-23T20:36:44.948Z,98667.64
2023-12-23T20:39:25.774Z,98674.98
2023-12-23T20:41:56.649Z,98673.85
2023-12-23T20:44:25.342Z,98674.88
2023-12-23T20:46:53.412Z,98671.95
2023-12-23T20:49:21.767Z,98680.59
2023-12-23T20:51:49.714Z,98685.09
2023-12-23T20:54:17.815Z,98680.24
2023-12-23T20:56:46.162Z,98681.29
2023-12-23T20:59:14.263Z,98684.98
2023-12-23T21:01:42.459Z,98688.10
2023-12-23T21:04:10.782Z,98686.77
2023-12-23T21:06:38.935Z,98687.52
2023-12-23T21:09:09.362Z,98696.23
2023-12-23T21:11:37.353Z,98695.70
2023-12-23T21:14:05.551Z,98703.40
2023-12-23T21:16:33.694Z,98699.08
2023-12-23T21:19:02.029Z,98702.94
2023-12-23T21:21:30.110Z,98707.00
2023-12-23T21:24:03.732Z,98706.30
2023-12-23T21:26:32.140Z,98711.04
2023-12-23T21:29:00.367Z,98713.00
2023-12-23T21:31:28.562Z,98717.10
2023-12-23T21:33:57.371Z,98716.02
2023-12-23T21:36:25.416Z,98713.53
2023-12-23T21:38:53.819Z,98712.80
2023-12-23T21:41:22.226Z,98714.65
2023-12-23T21:43:50.383Z,98717.23
2023-12-23T21:46:18.535Z,98720.14
2023-12-23T21:48:46.955Z,98722.34
2023-12-23T21:51:15.048Z,98717.65
2023-12-23T21:53:43.343Z,98714.48
2023-12-23T21:56:11.553Z,98713.02
2023-12-23T21:58:40.028Z,98709.15
2023-12-23T22:01:08.455Z,98711.19
2023-12-23T22:03:36.566Z,98716.03
2023-12-23T22:06:05.223Z,98720.67
2023-12-23T22:08:33.637Z,98723.23
2023-12-23T22:11:02.849Z,98728.59
2023-12-23T22:13:30.926Z,98728.14
2023-12-23T22:15:59.205Z,98725.65
2023-12-23T22:18:27.411Z,98726.08
2023-12-23T22:20:55.659Z,98725.01
2023-12-23T22:23:23.812Z,98726.86
2023-12-23T22:25:55.187Z,98722.30
2023-12-23T22:28:23.311Z,98722.96
2023-12-23T22:30:51.870Z,98724.09
2023-12-23T22:33:20.844Z,98726.85
2023-12-23T22:35:48.942Z,98722.66
2023-12-23T22:38:17.086Z,98722.61
2023-12-23T22:40:45.317Z,98725.36
2023-12-23T22:43:13.304Z,98730.45
2023-12-23T22:45:41.439Z,98734.78
2023-12-23T22:48:09.751Z,98736.02
2023-12-23T22:50:37.938Z,98738.67
2023-12-23T22:53:06.064Z,98741.62
2023-12-23T22:55:34.479Z,98749.33
2023-12-23T22:58:02.403Z,98749.54
2023-12-23T23:00:30.847Z,98754.27
2023-12-23T23:03:00.862Z,98760.22
2023-12-23T23:05:29.115Z,98763.05
2023-12-23T23:07:57.307Z,98762.40
2023-12-23T23:10:25.475Z,98768.96
2023-12-23T23:12:54.517Z,98770.00
2023-12-23T23:15:23.068Z,98775.27
2023-12-23T23:17:51.289Z,98775.33
2023-12-23T23:20:19.806Z,98779.98
2023-12-23T23:22:48.045Z,98785.48
2023-12-23T23:25:16.024Z,98788.31
2023-12-23T23:27:44.040Z,98792.44
2023-12-23T23:30:12.598Z,98789.57
2023-12-23T23:32:41.166Z,98789.67
2023-12-23T23:35:12.023Z,98797.06
2023-12-23T23:37:41.681Z,98805.73
2023-12-23T23:40:10.052Z,98811.07
2023-12-23T23:42:38.824Z,98816.42
2023-12-23T23:45:07.955Z,98814.88
2023-12-23T23:47:36.260Z,98825.27
2023-12-23T23:50:08.103Z,98825.80
2023-12-23T23:52:36.614Z,98826.08
2023-12-23T23:55:08.994Z,98824.50
2023-12-23T23:57:37.028Z,98817.20
